Stirum, North Dakota
Current Conditions -  °F | °C
As of 1:15 PM on Monday 20 Oct 2014 (Local Time) from KGWR Reporting Station
Clear Clear  
Wind Chill: 63°   Ceiling: Unl
Heat Index: 63°   Visibility: 10mi
Dew Point: 43°   Wind: 5mph
Humidity: 48%   Direction: 190°S
Pressure: 30.07"   Gusts: NA
Location:  46.21°N, 97.81°W
Report Text: KGWR 201815Z AUTO 19004KT 10SM CLR 17/06 A3007 RMK A01 P000
Loading
Personal Weather Stations






























Interactive Weather Map
Tropical Storm Tracking
New forecast layout! Learn more

10-Day Weather Forecast

Advertisements
Track Severe Weather on mobile